Search for airport 
image banner adimage banner adimage banner ad
image banner ad

N59 - Rosaschi Air Park

Located in Smith, United States

ICAO - N59, IATA -

Data provided by Airmate  

General information

Coordinates: N38°50'22" W119°20'18"
Elevation is 4809 feet MSL.
Magnetic variation is 16° East
View others Airports in Nevada

Operational data

Special qualification required
Current time UTC:
Current local time:
Weather at : KMEV - Minden-Tahoe ( 40 km )
METAR: KMEV 130235Z AUTO 28012G20KT 10SM CLR 26/05 A2997 RMK AO2
TAF: KMEV 122320Z 1300/1324 29012G22KT P6SM FEW090 FM130400 12005KT P6SM SKC FM132100 27014G24KT P6SM FEW090
View NOTAMs / SUP AIP / TFR affecting this airport [VIEW]
Communications frequencies: [VIEW]

Runways:

RWY identifierQFULength (ft)Width (ft)SurfaceLDA (ft)
07480032ASPH
25480032ASPH
17370064EARTH
35370064EARTH

Airport contact information

Address: Smith United States

Satellite view of N59